Time;durP1;ratioP1;P1;durP2;ratioP2;P2;SDS_P1;SDS_P2;PMS_P1;PMS_P2;Temp;Humidity;BMP_temperature;BMP_pressure;BME280_temperature;BME280_humidity;BME280_pressure;Samples;Min_cycle;Max_cycle;Signal;HPM_P1;HPM_P2
2021/12/12 00:01:49;;;;;;;9.73;7.72;;;;;;;2.68;82.29;101960.27;1775403;80;20976;-72
2021/12/12 00:04:18;;;;;;;7.58;6.75;;;;;;;2.66;82.39;101961.56;1775314;80;21023;-72
2021/12/12 00:06:50;;;;;;;10.28;7.20;;;;;;;2.64;82.40;101972.80;1775464;80;21839;-71
2021/12/12 00:09:27;;;;;;;10.25;7.58;;;;;;;2.64;82.58;101970.22;1774638;80;21116;-71
2021/12/12 00:11:54;;;;;;;12.40;8.75;;;;;;;2.65;82.50;101974.55;1775643;80;21444;-71
2021/12/12 00:14:27;;;;;;;12.55;8.68;;;;;;;2.64;82.34;101967.19;1775247;80;20943;-71
2021/12/12 00:16:55;;;;;;;10.88;8.63;;;;;;;2.65;82.25;101973.25;1775709;80;20888;-71
2021/12/12 00:19:22;;;;;;;10.05;8.08;;;;;;;2.62;82.33;101971.55;1777221;80;21159;-71
2021/12/12 00:21:52;;;;;;;9.55;8.55;;;;;;;2.61;82.41;101970.24;1776793;80;20926;-71
2021/12/12 00:24:19;;;;;;;11.43;8.10;;;;;;;2.66;82.63;101974.95;1775208;80;20873;-71
2021/12/12 00:26:48;;;;;;;10.85;8.70;;;;;;;2.70;82.40;101980.55;1776433;80;21011;-71
2021/12/12 00:29:16;;;;;;;15.38;11.43;;;;;;;2.66;82.39;101973.22;1783458;80;20912;-72
2021/12/12 00:31:43;;;;;;;13.25;9.73;;;;;;;2.69;82.56;101972.34;1783422;80;21116;-72
2021/12/12 00:34:10;;;;;;;15.15;11.85;;;;;;;2.69;82.30;101981.40;1783399;80;20936;-71
2021/12/12 00:36:40;;;;;;;16.73;12.70;;;;;;;2.67;82.31;101973.66;1783492;80;20938;-72
2021/12/12 00:39:11;;;;;;;17.07;13.45;;;;;;;2.72;82.51;101977.96;1783351;80;21018;-72
2021/12/12 00:41:59;;;;;;;17.60;12.55;;;;;;;2.75;82.52;101976.20;1782636;80;20984;-72
2021/12/12 00:44:26;;;;;;;22.07;15.80;;;;;;;2.80;82.62;101982.23;1783507;80;21121;-71
2021/12/12 00:46:55;;;;;;;21.05;15.00;;;;;;;2.86;82.73;101971.81;1783519;80;20881;-71
2021/12/12 00:49:22;;;;;;;18.42;13.98;;;;;;;2.93;82.60;101975.22;1783657;80;21010;-70
2021/12/12 00:51:50;;;;;;;17.57;14.00;;;;;;;2.96;82.23;101986.00;1753340;80;21402;-72
2021/12/12 00:54:18;;;;;;;15.78;11.18;;;;;;;2.96;81.93;101991.18;1783546;80;20971;-71
2021/12/12 00:56:46;;;;;;;12.23;9.68;;;;;;;2.93;81.72;101986.03;1783703;80;21924;-72
2021/12/12 00:59:13;;;;;;;13.60;8.90;;;;;;;2.90;81.88;101978.70;1783498;80;20865;-71
2021/12/12 01:01:47;;;;;;;11.65;9.60;;;;;;;2.89;81.57;101982.17;1783617;80;20975;-71
2021/12/12 01:04:27;;;;;;;13.27;9.70;;;;;;;2.84;81.63;101992.13;1783842;80;21039;-72
2021/12/12 01:06:56;;;;;;;12.98;9.35;;;;;;;2.79;81.75;101975.75;1783685;80;21553;-70
2021/12/12 01:09:29;;;;;;;16.15;11.93;;;;;;;2.77;81.87;101991.73;1753463;80;20955;-70
2021/12/12 01:11:58;;;;;;;18.70;13.32;;;;;;;2.75;81.97;101976.20;1783547;80;20939;-71
2021/12/12 01:14:31;;;;;;;16.87;13.43;;;;;;;2.72;81.98;101972.78;1783668;80;20928;-72
2021/12/12 01:17:15;;;;;;;17.67;13.70;;;;;;;2.68;81.96;101983.58;1783338;80;20987;-71
2021/12/12 01:19:50;;;;;;;20.67;14.40;;;;;;;2.62;82.17;101996.14;1784089;80;20848;-70
2021/12/12 01:22:22;;;;;;;19.10;15.15;;;;;;;2.58;82.41;101997.02;1783681;80;21144;-71
2021/12/12 01:24:50;;;;;;;18.12;13.80;;;;;;;2.60;82.59;101987.92;1783478;80;20904;-70
2021/12/12 01:27:18;;;;;;;25.32;18.85;;;;;;;2.62;82.72;101992.27;1781754;80;20944;-70
2021/12/12 01:29:46;;;;;;;20.37;15.53;;;;;;;2.68;82.78;101987.47;1775416;80;21339;-71
2021/12/12 01:32:23;;;;;;;19.02;14.23;;;;;;;2.72;82.74;101996.09;1775288;80;20932;-71
2021/12/12 01:34:44;;;;;;;17.50;12.98;;;;;;;2.73;82.51;101990.03;1774578;80;21150;-71
2021/12/12 01:39:49;;;;;;;17.60;12.68;;;;;;;2.66;82.21;101988.76;1775311;80;20916;-70
2021/12/12 01:42:21;;;;;;;18.35;13.35;;;;;;;2.63;82.28;101987.49;1775389;80;20880;-71
2021/12/12 01:44:58;;;;;;;19.75;14.00;;;;;;;2.61;82.48;101980.60;1775374;80;20964;-72
2021/12/12 01:47:46;;;;;;;24.60;15.93;;;;;;;2.60;82.50;101986.23;1775463;80;21532;-69
2021/12/12 01:50:23;;;;;;;20.23;14.73;;;;;;;2.60;82.57;101973.28;1775292;80;20920;-71
2021/12/12 01:52:51;;;;;;;18.37;13.65;;;;;;;2.59;82.54;101979.75;1777214;80;20960;-70
2021/12/12 01:55:41;;;;;;;23.75;14.90;;;;;;;2.56;82.55;101971.56;1775638;80;20908;-71
2021/12/12 01:58:12;;;;;;;21.93;15.28;;;;;;;2.53;82.54;101961.64;1775361;80;20893;-70
2021/12/12 02:00:50;;;;;;;34.00;20.15;;;;;;;2.52;82.56;101964.67;1775268;80;21188;-70
2021/12/12 02:03:20;;;;;;;52.93;26.57;;;;;;;2.52;82.56;101965.97;1774808;80;21007;-70
2021/12/12 02:05:47;;;;;;;48.08;26.30;;;;;;;2.51;82.62;101965.52;1775646;80;20980;-70
2021/12/12 02:08:17;;;;;;;36.10;19.85;;;;;;;2.48;82.63;101971.58;1775428;80;20936;-71
2021/12/12 02:10:52;;;;;;;16.65;11.00;;;;;;;2.43;82.53;101969.45;1775646;80;20900;-72
2021/12/12 02:13:20;;;;;;;14.68;9.55;;;;;;;2.36;82.53;101978.13;1775808;80;21168;-71
2021/12/12 02:15:50;;;;;;;12.37;9.78;;;;;;;2.28;82.71;101962.61;1775918;80;20869;-71
2021/12/12 02:18:20;;;;;;;12.95;10.13;;;;;;;2.26;82.93;101968.22;1775285;80;20963;-72
2021/12/12 02:21:15;;;;;;;15.72;11.05;;;;;;;2.27;83.01;101967.81;1775591;80;21506;-71
2021/12/12 02:24:14;;;;;;;12.68;8.75;;;;;;;2.32;83.07;101969.94;1774663;80;20928;-72
2021/12/12 02:37:17;;;;;;;;;;;;;;;2.41;83.15;101960.84;1786549;80;20944;-71
2021/12/12 02:39:44;;;;;;;16.87;11.03;;;;;;;2.40;82.84;101951.77;1783573;80;21146;-69
2021/12/12 02:42:13;;;;;;;16.57;11.65;;;;;;;2.34;82.72;101953.12;1783770;80;20963;-71
2021/12/12 02:44:42;;;;;;;15.08;10.78;;;;;;;2.30;82.63;101960.02;1783553;80;20856;-71
2021/12/12 02:47:14;;;;;;;15.35;9.93;;;;;;;2.24;82.67;101944.52;1783380;80;20943;-71
2021/12/12 02:50:06;;;;;;;19.42;11.05;;;;;;;2.25;82.93;101951.43;1783378;80;20928;-70
2021/12/12 02:52:25;;;;;;;35.08;20.70;;;;;;;2.22;82.97;101938.08;1780804;80;21211;-70
2021/12/12 02:54:53;;;;;;;38.90;19.45;;;;;;;2.20;83.11;101937.63;1781803;80;20844;-70
2021/12/12 02:57:19;;;;;;;28.07;16.93;;;;;;;2.16;83.29;101930.77;1778624;80;21393;-70
2021/12/12 02:59:50;;;;;;;19.85;11.03;;;;;;;2.15;83.37;101941.52;1775695;80;21006;-72
2021/12/12 03:02:26;;;;;;;17.65;10.72;;;;;;;2.14;83.33;101947.58;1775881;80;20975;-71
2021/12/12 03:04:56;;;;;;;28.17;15.35;;;;;;;2.10;83.04;101948.89;1775750;80;21155;-69
2021/12/12 03:07:23;;;;;;;23.55;12.25;;;;;;;2.02;83.06;101952.37;1776029;80;20895;-71
2021/12/12 03:09:56;;;;;;;33.30;16.25;;;;;;;1.98;83.15;101964.89;1775881;80;20950;-70
2021/12/12 03:12:33;;;;;;;24.65;13.62;;;;;;;1.96;83.34;101969.64;1775968;80;20927;-70
2021/12/12 03:15:08;;;;;;;17.90;11.35;;;;;;;1.98;83.34;101963.59;1736693;82;21000;-71
2021/12/12 03:17:37;;;;;;;12.43;9.08;;;;;;;2.00;83.35;101967.04;1718615;83;21942;-72
2021/12/12 03:20:10;;;;;;;17.52;11.40;;;;;;;1.98;83.39;101954.95;1721235;83;21423;-71
2021/12/12 03:22:36;;;;;;;20.23;11.70;;;;;;;1.95;83.35;101945.91;1720314;83;21505;-71
2021/12/12 03:25:04;;;;;;;34.63;19.80;;;;;;;1.93;83.46;101943.76;1722869;83;20873;-70
2021/12/12 03:27:32;;;;;;;37.33;20.00;;;;;;;1.90;83.31;101945.92;1720586;82;21394;-71
2021/12/12 03:29:59;;;;;;;33.38;17.95;;;;;;;1.83;83.40;101948.11;1772812;80;21241;-71
2021/12/12 03:32:26;;;;;;;39.15;21.80;;;;;;;1.81;83.56;101958.89;1772821;79;20911;-71
2021/12/12 03:34:56;;;;;;;52.53;26.95;;;;;;;1.79;83.73;101953.70;1772780;81;20824;-70
2021/12/12 03:37:25;;;;;;;71.90;37.20;;;;;;;1.85;83.82;101966.63;1772749;80;21378;-71
2021/12/12 03:39:54;;;;;;;36.40;19.62;;;;;;;1.89;83.75;101971.38;1772945;81;20892;-71
2021/12/12 03:42:23;;;;;;;39.55;18.82;;;;;;;1.90;83.29;101992.48;1772799;81;21135;-71
2021/12/12 03:44:51;;;;;;;45.35;24.85;;;;;;;1.85;83.20;101982.16;1772769;80;21450;-70
2021/12/12 03:47:35;;;;;;;53.98;26.77;;;;;;;1.82;83.11;101981.28;1772749;79;20964;-72
2021/12/12 03:50:08;;;;;;;61.98;31.60;;;;;;;1.80;83.23;101964.91;1772839;81;20924;-72
2021/12/12 03:52:35;;;;;;;56.77;25.62;;;;;;;1.82;83.21;101965.36;1772857;81;20987;-72
2021/12/12 03:55:03;;;;;;;17.00;10.98;;;;;;;1.83;83.31;101963.19;1772963;81;21897;-72
2021/12/12 03:57:30;;;;;;;16.67;9.88;;;;;;;1.85;82.96;101967.07;1772776;80;21386;-71
2021/12/12 03:59:58;;;;;;;20.65;11.45;;;;;;;1.79;82.68;101964.49;1772712;79;20947;-70
2021/12/12 04:02:25;;;;;;;42.62;23.92;;;;;;;1.69;82.83;101953.72;1772712;81;21298;-70
2021/12/12 04:04:52;;;;;;;59.73;29.63;;;;;;;1.60;83.01;101941.66;1772844;80;20868;-70
2021/12/12 04:07:23;;;;;;;26.93;15.50;;;;;;;1.57;83.15;101928.76;1773132;80;21114;-71
2021/12/12 04:09:51;;;;;;;40.73;19.00;;;;;;;1.54;83.21;101927.05;1772802;81;21458;-69
2021/12/12 04:12:21;;;;;;;34.30;17.65;;;;;;;1.51;83.13;101927.03;1772818;79;21374;-71
2021/12/12 04:14:49;;;;;;;27.30;14.83;;;;;;;1.49;83.26;101928.78;1751481;81;21383;-70
2021/12/12 04:17:19;;;;;;;18.90;10.82;;;;;;;1.49;83.40;101962.39;1773000;79;20880;-71
2021/12/12 04:19:48;;;;;;;45.92;20.50;;;;;;;1.49;83.42;101948.58;1772722;81;21131;-71
2021/12/12 04:22:15;;;;;;;35.85;19.75;;;;;;;1.48;83.30;101942.99;1772902;81;20888;-70
2021/12/12 04:24:46;;;;;;;46.53;19.73;;;;;;;1.47;83.14;101934.80;1773043;80;21425;-71
2021/12/12 04:27:14;;;;;;;28.67;14.00;;;;;;;1.40;83.22;101932.23;1772932;79;20908;-71
2021/12/12 04:29:44;;;;;;;25.12;12.63;;;;;;;1.38;83.43;101961.09;1768991;80;20892;-72
2021/12/12 04:32:15;;;;;;;47.20;20.60;;;;;;;1.37;83.39;101990.38;1768356;81;21906;-71
2021/12/12 04:34:46;;;;;;;49.35;24.90;;;;;;;1.35;83.39;101982.19;1768356;81;21517;-71
2021/12/12 04:37:13;;;;;;;38.40;18.77;;;;;;;1.31;83.41;101989.09;1768383;81;20833;-72
2021/12/12 04:39:46;;;;;;;42.78;18.15;;;;;;;1.28;83.46;101973.58;1768275;81;20896;-73
2021/12/12 04:42:56;;;;;;;42.10;18.85;;;;;;;1.29;83.44;101965.38;1797837;79;22652;-71
2021/12/12 04:45:51;;;;;;;21.60;13.68;;;;;;;1.22;83.48;101964.52;1758416;81;21447;-72
2021/12/12 04:51:50;;;;;;;19.57;12.33;;;;;;;1.19;83.34;101952.47;1758467;80;20998;-71
2021/12/12 04:54:39;;;;;;;20.10;13.25;;;;;;;1.20;83.70;101963.25;1757465;80;21001;-71
2021/12/12 04:57:17;;;;;;;25.23;15.05;;;;;;;1.25;83.48;101950.33;1760180;80;20916;-73
2021/12/12 05:00:08;;;;;;;31.40;16.90;;;;;;;1.25;83.24;101956.79;1758677;80;21362;-71
2021/12/12 05:03:03;;;;;;;23.18;13.70;;;;;;;1.20;83.17;101961.95;1758408;80;21167;-70
2021/12/12 05:05:44;;;;;;;42.45;21.33;;;;;;;1.17;83.12;101978.73;1757816;81;21462;-70
2021/12/12 05:08:17;;;;;;;47.48;21.45;;;;;;;1.11;83.01;101979.16;1758292;81;20995;-75
2021/12/12 05:11:01;;;;;;;56.83;25.60;;;;;;;1.04;83.09;101995.08;1758529;81;20888;-72
2021/12/12 05:13:38;;;;;;;49.20;25.50;;;;;;;0.98;83.20;102001.11;1758897;80;20924;-71
2021/12/12 05:16:17;;;;;;;51.37;24.55;;;;;;;0.92;83.38;101999.80;1758261;80;21145;-71
2021/12/12 05:18:50;;;;;;;30.82;16.73;;;;;;;0.90;83.72;102013.56;1758140;80;20963;-70
2021/12/12 05:21:21;;;;;;;26.40;15.40;;;;;;;0.89;83.73;102014.00;1758188;80;20999;-71
2021/12/12 05:23:50;;;;;;;22.20;13.20;;;;;;;0.88;83.56;102012.27;1756914;80;20896;-71
2021/12/12 05:26:20;;;;;;;20.32;13.28;;;;;;;0.86;83.44;102034.64;1758408;80;20861;-70
2021/12/12 05:28:50;;;;;;;20.48;13.78;;;;;;;0.82;83.32;102020.88;1758324;80;21812;-71
2021/12/12 05:31:19;;;;;;;20.80;12.93;;;;;;;0.79;83.47;102012.24;1758138;81;20940;-71
2021/12/12 05:33:48;;;;;;;23.22;13.83;;;;;;;0.78;83.41;102011.39;1758188;81;20932;-70
2021/12/12 05:36:14;;;;;;;28.35;15.65;;;;;;;0.80;83.37;102001.92;1739068;81;20900;-72
2021/12/12 05:38:41;;;;;;;30.08;16.23;;;;;;;0.80;83.58;102011.38;1758226;80;21040;-71
2021/12/12 05:41:10;;;;;;;31.75;17.90;;;;;;;0.81;83.66;102013.11;1758410;80;21045;-72
2021/12/12 05:43:37;;;;;;;37.05;18.25;;;;;;;0.80;83.73;102010.08;1758479;80;21458;-71
2021/12/12 05:46:05;;;;;;;31.50;18.50;;;;;;;0.80;83.74;102017.42;1758483;81;20944;-72
2021/12/12 05:48:33;;;;;;;41.63;22.15;;;;;;;0.82;83.79;102006.67;1758408;81;20876;-71
2021/12/12 05:51:00;;;;;;;50.03;24.92;;;;;;;0.81;83.79;102016.98;1758483;81;20865;-71
2021/12/12 05:53:27;;;;;;;67.22;30.32;;;;;;;0.79;83.88;102012.24;1758136;80;21533;-71
2021/12/12 05:55:54;;;;;;;73.72;34.27;;;;;;;0.85;84.25;102004.95;1757858;80;20900;-71
2021/12/12 05:58:22;;;;;;;110.30;48.33;;;;;;;0.89;84.19;102005.38;1757941;81;20921;-70
2021/12/12 06:00:57;;;;;;;100.97;45.50;;;;;;;0.95;84.19;102011.84;1757914;81;20892;-71
2021/12/12 06:03:30;;;;;;;69.32;32.70;;;;;;;0.99;84.33;102014.44;1758374;80;20987;-72
2021/12/12 06:05:58;;;;;;;48.87;26.42;;;;;;;1.02;83.99;102016.16;1741238;81;21214;-71
2021/12/12 06:08:26;;;;;;;50.25;24.00;;;;;;;1.01;83.85;102010.58;1758034;80;21051;-71
2021/12/12 06:10:53;;;;;;;42.15;21.55;;;;;;;0.99;83.76;102008.42;1757874;81;21428;-70
2021/12/12 06:13:20;;;;;;;37.48;20.20;;;;;;;0.96;83.75;102009.28;1757870;80;20908;-72
2021/12/12 06:15:53;;;;;;;33.48;18.35;;;;;;;0.93;83.87;102014.86;1757958;81;20987;-73
2021/12/12 06:18:21;;;;;;;44.30;22.73;;;;;;;0.92;84.00;102012.70;1758069;80;21196;-73
2021/12/12 06:20:48;;;;;;;43.52;21.50;;;;;;;0.92;84.09;102012.70;1757816;81;20849;-72
2021/12/12 06:23:16;;;;;;;51.23;25.25;;;;;;;0.91;84.24;102016.16;1741398;81;20920;-73
2021/12/12 06:25:43;;;;;;;39.70;22.25;;;;;;;0.93;84.28;102010.98;1757921;81;20952;-75
2021/12/12 06:28:18;;;;;;;35.80;19.52;;;;;;;0.95;84.19;102009.27;1758094;81;20852;-73
2021/12/12 06:30:45;;;;;;;43.28;22.10;;;;;;;0.94;84.18;102011.00;1759175;80;21147;-72
2021/12/12 06:33:12;;;;;;;50.08;26.33;;;;;;;0.93;84.21;102009.25;1758064;81;20873;-73
2021/12/12 06:35:39;;;;;;;56.00;27.00;;;;;;;0.94;84.33;102019.18;1757913;81;20896;-70
2021/12/12 06:38:10;;;;;;;60.28;31.05;;;;;;;0.97;84.48;102007.12;1757869;81;21346;-72
2021/12/12 06:40:36;;;;;;;33.30;20.15;;;;;;;0.99;84.41;102018.75;1757914;80;21389;-73
2021/12/12 06:43:05;;;;;;;39.50;21.73;;;;;;;0.96;84.37;102014.45;1746812;81;21151;-72
2021/12/12 06:45:33;;;;;;;38.00;21.37;;;;;;;0.93;84.45;102023.45;1744501;81;20973;-73
2021/12/12 06:47:59;;;;;;;49.60;24.18;;;;;;;0.93;84.58;102022.16;1744578;81;21367;-71
2021/12/12 06:50:27;;;;;;;46.92;21.75;;;;;;;0.97;84.52;102006.27;1744600;81;20968;-72
2021/12/12 06:52:54;;;;;;;31.85;18.10;;;;;;;0.99;84.55;102009.27;1744709;81;20912;-80
2021/12/12 06:55:21;;;;;;;29.75;15.55;;;;;;;1.02;84.38;102009.70;1745069;81;21135;-79
2021/12/12 06:57:48;;;;;;;42.73;20.37;;;;;;;1.01;84.31;102013.16;1744568;81;20889;-77
2021/12/12 07:00:20;;;;;;;34.90;18.75;;;;;;;1.01;84.54;102017.89;1745677;81;20936;-79
2021/12/12 07:02:47;;;;;;;34.20;20.60;;;;;;;1.06;84.54;102024.36;1744763;81;20927;-76
2021/12/12 07:05:18;;;;;;;31.45;18.73;;;;;;;1.10;84.40;102022.22;1744863;81;20976;-76
2021/12/12 07:07:46;;;;;;;42.67;23.05;;;;;;;1.14;84.35;102023.09;1744950;81;21126;-78
2021/12/12 07:10:15;;;;;;;27.05;16.52;;;;;;;1.16;84.03;102022.67;1744474;81;21477;-78
2021/12/12 07:12:42;;;;;;;35.65;20.27;;;;;;;1.14;83.62;102014.05;1745008;81;20861;-79
2021/12/12 07:15:13;;;;;;;39.20;20.10;;;;;;;1.09;83.78;102014.05;1744587;81;21414;-80
2021/12/12 07:17:40;;;;;;;36.42;19.15;;;;;;;1.08;83.79;102008.43;1744850;81;20885;-78
2021/12/12 07:20:10;;;;;;;41.48;23.70;;;;;;;1.05;83.77;102012.31;1744614;81;20913;-79
2021/12/12 07:22:37;;;;;;;35.03;18.98;;;;;;;1.01;83.94;102019.19;1744473;81;20889;-81
2021/12/12 07:25:06;;;;;;;39.90;21.68;;;;;;;0.99;84.03;102018.31;1744645;80;20940;-79
2021/12/12 07:27:33;;;;;;;36.58;21.52;;;;;;;0.98;84.07;102014.45;1744776;81;21027;-81
2021/12/12 07:30:00;;;;;;;42.40;21.50;;;;;;;1.01;84.12;102016.59;1744674;81;21391;-79
2021/12/12 07:32:27;;;;;;;36.28;20.00;;;;;;;1.03;84.05;102018.76;1744827;81;21113;-80
2021/12/12 07:34:54;;;;;;;28.17;18.48;;;;;;;1.08;84.11;102021.34;1745062;81;20932;-80
2021/12/12 07:37:21;;;;;;;35.98;20.55;;;;;;;1.11;83.95;102019.20;1745303;81;20917;-82
2021/12/12 07:39:52;;;;;;;33.25;19.15;;;;;;;1.11;83.87;102025.66;1743949;81;20873;-80
2021/12/12 07:42:19;;;;;;;41.77;24.43;;;;;;;1.09;83.88;102016.63;1749054;81;20861;-80
2021/12/12 07:44:46;;;;;;;36.58;22.50;;;;;;;1.08;83.92;102013.59;1757959;81;21402;-81
2021/12/12 07:47:14;;;;;;;65.08;34.30;;;;;;;1.11;84.17;102009.75;1758603;81;20904;-82
2021/12/12 07:49:45;;;;;;;48.83;23.55;;;;;;;1.19;84.15;102029.13;1758177;80;20896;-80
2021/12/12 07:52:16;;;;;;;44.98;21.35;;;;;;;1.22;83.69;102008.44;1758417;81;21040;-78
2021/12/12 07:54:45;;;;;;;41.98;22.13;;;;;;;1.20;83.49;102002.41;1757914;81;20963;-78
2021/12/12 07:57:12;;;;;;;35.05;20.15;;;;;;;1.15;83.50;101999.83;1758120;80;21122;-76
2021/12/12 07:59:39;;;;;;;31.65;17.65;;;;;;;1.16;83.70;102012.34;1716983;81;21410;-77
2021/12/12 08:02:07;;;;;;;48.63;26.55;;;;;;;1.19;83.62;102009.30;1717208;81;20912;-79
2021/12/12 08:04:35;;;;;;;41.50;23.95;;;;;;;1.19;83.59;102007.16;1743688;80;20948;-78
2021/12/12 08:07:03;;;;;;;71.20;33.18;;;;;;;1.19;83.56;102014.47;1758935;81;20944;-78
2021/12/12 08:09:30;;;;;;;64.37;29.87;;;;;;;1.17;83.58;102014.05;1757998;80;21120;-78
2021/12/12 08:11:58;;;;;;;56.35;26.70;;;;;;;1.18;83.76;101997.27;1757947;81;20892;-78
2021/12/12 08:14:27;;;;;;;46.53;25.20;;;;;;;1.22;83.92;101993.83;1757780;81;20900;-80
2021/12/12 08:16:55;;;;;;;42.73;22.65;;;;;;;1.27;83.87;101996.41;1757963;81;21511;-77
2021/12/12 08:19:24;;;;;;;41.90;22.15;;;;;;;1.33;83.86;101989.93;1758168;80;20916;-78
2021/12/12 08:21:53;;;;;;;32.28;20.37;;;;;;;1.38;83.83;101994.70;1758115;80;21074;-77
2021/12/12 08:24:20;;;;;;;32.45;19.32;;;;;;;1.39;83.73;101992.96;1741533;81;21386;-77
2021/12/12 08:26:47;;;;;;;52.13;25.85;;;;;;;1.42;83.81;101987.78;1716764;81;20888;-79
2021/12/12 08:29:14;;;;;;;51.63;26.80;;;;;;;1.44;83.57;101985.63;1757826;80;20960;-78
2021/12/12 08:31:41;;;;;;;37.98;20.23;;;;;;;1.46;83.53;101989.52;1757964;80;20923;-78
2021/12/12 08:34:12;;;;;;;41.08;21.33;;;;;;;1.45;83.12;101984.78;1758682;80;21189;-78
2021/12/12 08:36:43;;;;;;;37.98;20.20;;;;;;;1.41;83.15;101982.20;1757873;81;20912;-78
2021/12/12 08:39:11;;;;;;;37.30;19.73;;;;;;;1.40;83.50;101975.29;1758126;81;20904;-76
2021/12/12 08:41:40;;;;;;;32.48;17.35;;;;;;;1.44;83.46;101973.98;1757769;80;21373;-80
2021/12/12 08:44:09;;;;;;;32.88;19.45;;;;;;;1.48;83.38;101976.59;1744692;81;21410;-81
2021/12/12 08:46:42;;;;;;;38.45;23.18;;;;;;;1.47;83.44;101967.98;1745115;81;21846;-81
2021/12/12 08:49:11;;;;;;;46.88;22.50;;;;;;;1.49;83.57;101967.96;1744576;81;20912;-80
2021/12/12 08:51:44;;;;;;;34.67;20.20;;;;;;;1.52;83.57;101966.25;1744574;81;21003;-81
2021/12/12 08:54:14;;;;;;;31.95;20.20;;;;;;;1.54;83.49;101957.21;1744480;81;21347;-81
2021/12/12 08:56:46;;;;;;;34.78;18.67;;;;;;;1.55;83.23;101962.80;1744631;81;20893;-79
2021/12/12 08:59:26;;;;;;;34.23;19.35;;;;;;;1.51;83.01;101947.70;1744607;81;21191;-78
2021/12/12 09:01:57;;;;;;;26.07;15.95;;;;;;;1.48;83.16;101955.48;1744574;81;21011;-78
2021/12/12 09:04:36;;;;;;;28.85;18.57;;;;;;;1.48;83.21;101955.92;1746659;81;20892;-77
2021/12/12 09:07:17;;;;;;;22.87;15.18;;;;;;;1.49;83.40;101943.00;1744592;81;20925;-77
2021/12/12 09:09:49;;;;;;;29.12;18.02;;;;;;;1.53;83.29;101936.94;1744300;81;20937;-81
2021/12/12 09:12:26;;;;;;;32.75;19.23;;;;;;;1.51;83.00;101939.95;1732018;81;21154;-81
2021/12/12 09:15:15;;;;;;;27.60;16.67;;;;;;;1.48;83.16;101932.22;1744105;80;20928;-73
2021/12/12 09:17:53;;;;;;;49.03;24.60;;;;;;;1.49;83.20;101930.48;1744790;81;21458;-73
2021/12/12 09:20:34;;;;;;;42.15;21.62;;;;;;;1.47;83.09;101929.62;1744548;81;20948;-74
2021/12/12 09:23:08;;;;;;;46.95;25.27;;;;;;;1.47;83.20;101950.30;1734379;81;20861;-74
2021/12/12 09:25:50;;;;;;;53.85;30.02;;;;;;;1.42;83.17;101934.80;1744406;80;21135;-72
2021/12/12 09:28:28;;;;;;;52.10;28.73;;;;;;;1.40;83.41;101929.66;1743804;81;20893;-72
2021/12/12 09:30:56;;;;;;;60.23;29.72;;;;;;;1.41;83.56;101922.31;1745005;80;20945;-72
2021/12/12 09:33:40;;;;;;;39.27;21.45;;;;;;;1.45;83.70;101912.84;1734274;82;20909;-76
2021/12/12 09:36:15;;;;;;;39.80;23.90;;;;;;;1.50;83.65;101912.39;1745054;81;20904;-73
2021/12/12 09:38:50;;;;;;;;;;;;;;;1.54;83.60;101915.84;1748216;81;21088;-73
2021/12/12 09:41:29;;;;;;;34.03;17.17;;;;;;;1.58;83.48;101911.08;1745105;80;20073;-70
2021/12/12 09:44:53;;;;;;;32.70;20.17;;;;;;;1.60;83.44;101915.81;1754753;80;20952;-77
2021/12/12 09:47:59;;;;;;;46.83;22.55;;;;;;;1.61;83.49;101911.94;1757969;80;20865;-75
2021/12/12 09:54:13;;;;;;;48.58;23.27;;;;;;;1.62;83.78;101912.80;1758387;81;21126;-82
2021/12/12 09:56:53;;;;;;;65.05;30.27;;;;;;;1.66;83.87;101921.83;1758698;80;20856;-80
2021/12/12 09:59:50;;;;;;;76.92;37.28;;;;;;;1.65;83.85;101907.20;1758588;81;20920;-79
2021/12/12 10:02:42;;;;;;;79.27;39.00;;;;;;;1.69;83.93;101911.06;1758216;81;21425;-84
2021/12/12 10:05:33;;;;;;;74.65;34.65;;;;;;;1.69;83.78;101909.36;1760067;80;20841;-81
2021/12/12 10:08:17;;;;;;;69.85;34.70;;;;;;;1.70;83.96;101917.97;1759383;81;21133;-81
2021/12/12 10:11:10;;;;;;;77.58;35.08;;;;;;;1.72;83.71;101911.07;1746653;80;20900;-78
2021/12/12 10:14:04;;;;;;;50.25;25.80;;;;;;;1.69;83.77;101905.48;1758593;81;20916;-80
2021/12/12 10:17:02;;;;;;;52.15;25.00;;;;;;;1.74;84.05;101902.44;1758405;81;20935;-74
2021/12/12 10:19:59;;;;;;;58.90;30.27;;;;;;;1.80;84.15;101898.95;1758149;81;20928;-77
2021/12/12 10:22:43;;;;;;;50.90;26.05;;;;;;;1.94;84.30;101911.87;1758563;81;21732;-83
2021/12/12 10:25:27;;;;;;;36.90;19.25;;;;;;;2.02;84.04;101910.98;1758179;80;21394;-78
2021/12/12 10:28:02;;;;;;;;;;;;;;;2.09;83.27;101907.94;1729697;81;20924;-79
2021/12/12 10:30:37;;;;;;;34.70;19.73;;;;;;;2.05;83.26;101910.10;1758238;81;20100;-85
2021/12/12 10:33:17;;;;;;;31.93;19.40;;;;;;;2.00;82.89;101904.95;1738950;81;20939;-86
2021/12/12 10:35:51;;;;;;;35.68;19.65;;;;;;;1.96;83.18;101899.36;1743954;80;21038;-84
2021/12/12 10:38:27;;;;;;;34.78;20.95;;;;;;;1.95;83.11;101913.58;1758535;80;20920;-84
2021/12/12 10:41:17;;;;;;;43.98;25.65;;;;;;;1.93;83.11;101914.02;1758248;80;20927;-77
2021/12/12 10:44:03;;;;;;;40.08;20.77;;;;;;;1.93;83.06;101917.45;1757805;80;20884;-78
2021/12/12 10:47:10;;;;;;;46.98;22.90;;;;;;;1.93;83.01;101909.69;1758147;81;21441;-89
2021/12/12 10:49:48;;;;;;;38.00;19.67;;;;;;;1.93;82.87;101916.16;1758160;81;21175;-87
2021/12/12 10:52:20;;;;;;;38.35;21.45;;;;;;;2.01;83.00;101914.41;1757697;81;21457;-82
2021/12/12 10:54:57;;;;;;;60.33;32.40;;;;;;;2.06;82.66;101907.92;1757947;80;20920;-81
2021/12/12 10:57:34;;;;;;;57.13;29.20;;;;;;;2.10;82.39;101900.58;1757899;81;20955;-82
2021/12/12 11:00:21;;;;;;;45.70;24.18;;;;;;;2.05;82.05;101899.31;1757537;81;21035;-88
2021/12/12 11:02:56;;;;;;;37.58;20.68;;;;;;;2.01;81.93;101896.30;1757974;81;21103;-82
2021/12/12 11:05:39;;;;;;;35.68;18.77;;;;;;;1.98;81.80;101910.56;1757409;81;20881;-80
2021/12/12 11:08:48;;;;;;;36.50;19.27;;;;;;;1.95;81.49;101896.77;1758500;81;20971;-85
2021/12/12 11:11:16;;;;;;;46.42;24.70;;;;;;;1.90;81.43;101892.05;1760585;78;21100;-86
2021/12/12 11:14:05;;;;;;;35.58;20.82;;;;;;;1.87;81.68;101892.92;1760275;81;20948;-89
2021/12/12 11:16:50;;;;;;;35.70;22.13;;;;;;;1.89;81.42;101891.20;1758014;80;21612;-77
2021/12/12 11:19:37;;;;;;;35.63;20.50;;;;;;;1.89;81.38;101887.72;1755204;81;21007;-76
2021/12/12 11:22:33;;;;;;;35.33;20.27;;;;;;;1.88;81.38;101871.79;1757854;80;20983;-74
2021/12/12 11:25:05;;;;;;;;;;;;;;;1.89;81.23;101863.16;1760677;80;21343;-75
2021/12/12 11:27:42;;;;;;;28.75;18.73;;;;;;;1.91;81.19;101870.47;1757944;81;20124;-75
2021/12/12 11:30:34;;;;;;;29.42;19.85;;;;;;;1.93;81.00;101859.69;1758169;80;21145;-75
2021/12/12 11:33:04;;;;;;;33.23;19.52;;;;;;;1.97;80.88;101844.15;1757273;81;20939;-75
2021/12/12 11:35:32;;;;;;;37.38;21.48;;;;;;;2.02;80.44;101846.71;1758131;81;21281;-77
2021/12/12 11:38:13;;;;;;;36.73;21.73;;;;;;;2.03;80.14;101848.45;1757908;81;21372;-75
2021/12/12 11:40:48;;;;;;;36.90;22.40;;;;;;;1.98;80.17;101840.71;1757385;81;20932;-73
2021/12/12 11:43:25;;;;;;;35.65;21.95;;;;;;;2.01;80.55;101835.52;1738272;82;22101;-74
2021/12/12 11:46:01;;;;;;;35.60;21.07;;;;;;;2.07;79.88;101837.22;1744844;81;20917;-74
2021/12/12 11:48:49;;;;;;;36.75;19.98;;;;;;;2.04;79.69;101846.27;1744523;81;20968;-74
2021/12/12 11:51:27;;;;;;;39.00;22.10;;;;;;;1.96;79.41;101840.30;1744580;81;20953;-72
2021/12/12 11:54:02;;;;;;;30.45;20.17;;;;;;;1.91;79.63;101838.14;1744651;81;21052;-73
2021/12/12 11:56:45;;;;;;;29.85;18.35;;;;;;;1.89;79.47;101848.92;1744577;81;21426;-75
2021/12/12 11:59:27;;;;;;;31.87;19.48;;;;;;;1.85;79.60;101848.95;1744411;80;20887;-75
2021/12/12 12:02:08;;;;;;;34.05;21.87;;;;;;;1.84;79.48;101848.50;1719606;81;20901;-76
2021/12/12 12:05:14;;;;;;;34.38;19.98;;;;;;;1.84;79.50;101840.75;1744222;81;20956;-74
2021/12/12 12:08:08;;;;;;;43.28;24.82;;;;;;;1.85;79.42;101841.19;1744613;81;20884;-74
2021/12/12 12:11:11;;;;;;;41.30;22.05;;;;;;;1.84;79.25;101840.75;1744369;81;21166;-72